Terminal Aerodrome Forecast
Issued by NWS

Home | Current Version | Previous Version | Text Only | Print | Product List | Glossary On
Versions: 1 2 3 4 5 6 7 8 9 10 11 12 13
000
FTUS46 KSEW 240900 AAA
TAFCLM
TAF AMD
KCLM 240937Z 2410/2506 23004KT P6SM SCT060 OVC070
     FM241200 24005KT P6SM VCSH BKN025
     FM241500 27006KT P6SM VCSH OVC015
     FM241800 31008KT P6SM OVC025
     FM250000 30012KT P6SM OVC050=

USA.gov is the U.S. government's official web portal to all federal, state and local government web resources and services.